createdAt,value
2022-08-23T00:01:51.754Z,3.70
2022-08-23T00:04:23.467Z,3.53
2022-08-23T00:07:02.777Z,3.47
2022-08-23T00:09:30.056Z,3.20
2022-08-23T00:12:16.470Z,3.47
2022-08-23T00:14:48.980Z,3.50
2022-08-23T00:17:34.398Z,3.35
2022-08-23T00:20:04.372Z,3.45
2022-08-23T00:22:31.216Z,3.53
2022-08-23T00:24:58.030Z,3.40
2022-08-23T00:27:24.762Z,3.50
2022-08-23T00:29:55.685Z,3.40
2022-08-23T00:32:25.823Z,3.45
2022-08-23T00:34:52.992Z,3.60
2022-08-23T00:37:21.036Z,3.25
2022-08-23T00:39:47.776Z,3.65
2022-08-23T00:43:06.047Z,2.85
2022-08-23T00:46:13.613Z,3.40
2022-08-23T00:48:41.146Z,3.40
2022-08-23T00:51:21.358Z,3.28
2022-08-23T00:53:53.505Z,3.50
2022-08-23T00:56:22.836Z,3.60
2022-08-23T00:58:50.154Z,3.75
2022-08-23T01:01:18.349Z,3.45
2022-08-23T01:03:49.815Z,2.85
2022-08-23T01:06:33.231Z,3.47
2022-08-23T01:09:09.006Z,3.60
2022-08-23T01:11:48.279Z,3.15
2022-08-23T01:14:22.017Z,3.10
2022-08-23T01:16:55.364Z,3.25
2022-08-23T01:19:31.671Z,3.47
2022-08-23T01:22:14.490Z,3.40
2022-08-23T01:25:08.260Z,2.88
2022-08-23T01:27:30.274Z,3.55
2022-08-23T01:29:59.074Z,3.22
2022-08-23T01:32:25.850Z,3.13
2022-08-23T01:34:52.874Z,3.58
2022-08-23T01:37:21.274Z,3.88
2022-08-23T01:39:48.119Z,3.50
2022-08-23T01:42:14.865Z,3.40
2022-08-23T01:44:41.619Z,3.55
2022-08-23T01:47:08.354Z,3.58
2022-08-23T01:49:35.186Z,3.50
2022-08-23T01:52:01.985Z,4.10
2022-08-23T01:54:29.310Z,3.33
2022-08-23T01:56:56.547Z,3.50
2022-08-23T01:59:24.164Z,3.30
2022-08-23T02:01:51.362Z,3.50
2022-08-23T02:04:18.410Z,3.50
2022-08-23T02:06:45.809Z,3.65
2022-08-23T02:09:17.741Z,3.35
2022-08-23T02:11:45.350Z,3.92
2022-08-23T02:14:14.921Z,3.50
2022-08-23T02:17:03.127Z,3.60
2022-08-23T02:19:32.925Z,3.83
2022-08-23T02:22:00.078Z,3.80
2022-08-23T02:24:27.123Z,3.90
2022-08-23T02:26:57.357Z,3.72
2022-08-23T02:29:25.919Z,3.65
2022-08-23T02:31:53.189Z,3.65
2022-08-23T02:34:35.459Z,3.70
2022-08-23T02:37:02.423Z,4.07
2022-08-23T02:39:29.558Z,3.92
2022-08-23T02:41:56.470Z,4.15
2022-08-23T02:44:24.475Z,4.05
2022-08-23T02:46:51.274Z,5.28
2022-08-23T02:49:18.735Z,5.47
2022-08-23T02:51:46.101Z,5.45
2022-08-23T02:54:13.238Z,4.15
2022-08-23T02:56:40.172Z,4.18
2022-08-23T02:59:07.546Z,3.97
2022-08-23T03:01:37.675Z,3.88
2022-08-23T03:04:06.985Z,4.00
2022-08-23T03:06:34.286Z,3.60
2022-08-23T03:09:01.543Z,3.53
2022-08-23T03:11:28.388Z,3.55
2022-08-23T03:13:56.506Z,4.07
2022-08-23T03:16:24.498Z,3.80
2022-08-23T03:18:52.204Z,3.92
2022-08-23T03:21:20.549Z,4.35
2022-08-23T03:23:48.574Z,4.97
2022-08-23T03:26:16.105Z,5.18
2022-08-23T03:28:44.806Z,5.05
2022-08-23T03:31:12.421Z,4.78
2022-08-23T03:33:39.782Z,4.50
2022-08-23T03:36:10.514Z,4.60
2022-08-23T03:38:39.437Z,3.88
2022-08-23T03:41:06.588Z,4.38
2022-08-23T03:43:34.574Z,4.53
2022-08-23T03:46:01.366Z,4.40
2022-08-23T03:48:28.138Z,4.05
2022-08-23T03:50:54.987Z,3.97
2022-08-23T03:53:23.814Z,3.92
2022-08-23T03:55:52.529Z,4.60
2022-08-23T03:58:21.508Z,4.72
2022-08-23T04:00:48.791Z,4.70
2022-08-23T04:03:15.801Z,4.53
2022-08-23T04:05:42.548Z,4.90
2022-08-23T04:08:11.223Z,4.90
2022-08-23T04:10:39.125Z,4.63
2022-08-23T04:13:09.139Z,3.97
2022-08-23T04:15:36.923Z,4.57
2022-08-23T04:18:04.289Z,4.82
2022-08-23T04:20:31.235Z,4.70
2022-08-23T04:22:58.459Z,4.93
2022-08-23T04:25:34.211Z,4.38
2022-08-23T04:28:03.323Z,4.60
2022-08-23T04:30:30.575Z,4.32
2022-08-23T04:32:57.336Z,4.43
2022-08-23T04:35:25.526Z,4.85
2022-08-23T04:37:52.888Z,4.65
2022-08-23T04:40:38.589Z,4.63
2022-08-23T04:43:05.482Z,4.55
2022-08-23T04:45:32.635Z,5.00
2022-08-23T04:47:59.546Z,5.43
2022-08-23T04:50:26.401Z,6.15
2022-08-23T04:52:53.195Z,5.28
2022-08-23T04:55:20.132Z,4.93
2022-08-23T04:57:46.880Z,4.78
2022-08-23T05:00:16.341Z,4.72
2022-08-23T05:02:43.530Z,4.90
2022-08-23T05:05:11.213Z,5.13
2022-08-23T05:07:41.860Z,4.57
2022-08-23T05:10:15.535Z,4.82
2022-08-23T05:12:42.666Z,4.78
2022-08-23T05:15:10.021Z,4.95
2022-08-23T05:17:37.773Z,4.50
2022-08-23T05:20:06.328Z,4.43
2022-08-23T05:22:34.941Z,4.68
2022-08-23T05:25:01.633Z,4.50
2022-08-23T05:27:28.340Z,4.28
2022-08-23T05:29:55.050Z,4.63
2022-08-23T05:32:22.840Z,5.28
2022-08-23T05:34:49.811Z,4.95
2022-08-23T05:37:17.850Z,4.68
2022-08-23T05:39:44.582Z,4.60
2022-08-23T05:42:14.141Z,5.25
2022-08-23T05:44:40.838Z,4.55
2022-08-23T05:47:11.604Z,4.43
2022-08-23T05:49:39.546Z,5.00
2022-08-23T05:52:10.419Z,4.53
2022-08-23T05:54:38.003Z,4.20
2022-08-23T05:57:04.839Z,4.63
2022-08-23T05:59:31.579Z,4.50
2022-08-23T06:01:58.238Z,4.45
2022-08-23T06:04:24.914Z,4.93
2022-08-23T06:06:51.607Z,4.70
2022-08-23T06:09:19.378Z,4.32
2022-08-23T06:11:47.899Z,4.95
2022-08-23T06:14:15.757Z,4.80
2022-08-23T06:16:54.876Z,4.32
2022-08-23T06:19:23.965Z,4.40
2022-08-23T06:21:52.044Z,5.03
2022-08-23T06:24:19.496Z,4.50
2022-08-23T06:26:47.013Z,4.18
2022-08-23T06:29:17.282Z,4.63
2022-08-23T06:31:49.964Z,4.30
2022-08-23T06:34:25.866Z,4.43
2022-08-23T06:36:56.128Z,4.68
2022-08-23T06:39:25.163Z,4.70
2022-08-23T06:41:52.314Z,4.85
2022-08-23T06:44:19.949Z,4.70
2022-08-23T06:46:48.790Z,4.95
2022-08-23T06:49:16.415Z,4.45
2022-08-23T06:51:50.956Z,4.60
2022-08-23T06:54:22.937Z,4.18
2022-08-23T06:56:54.107Z,3.90
2022-08-23T06:59:23.116Z,4.47
2022-08-23T07:01:54.256Z,4.28
2022-08-23T07:04:28.844Z,4.30
2022-08-23T07:06:56.694Z,4.30
2022-08-23T07:09:23.583Z,4.15
2022-08-23T07:11:51.371Z,4.15
2022-08-23T07:14:19.939Z,4.30
2022-08-23T07:16:52.844Z,3.97
2022-08-23T07:19:22.672Z,4.03
2022-08-23T07:21:57.159Z,4.15
2022-08-23T07:24:27.219Z,4.30
2022-08-23T07:26:57.752Z,3.85
2022-08-23T07:29:24.694Z,4.22
2022-08-23T07:31:55.121Z,4.15
2022-08-23T07:34:22.961Z,3.92
2022-08-23T07:36:51.539Z,4.25
2022-08-23T07:39:19.524Z,4.38
2022-08-23T07:41:46.886Z,4.35
2022-08-23T07:44:18.027Z,3.50
2022-08-23T07:46:46.352Z,3.88
2022-08-23T07:49:14.501Z,4.05
2022-08-23T07:51:45.395Z,4.20
2022-08-23T07:54:13.126Z,3.90
2022-08-23T07:56:40.588Z,3.67
2022-08-23T07:59:08.863Z,4.20
2022-08-23T08:01:36.363Z,3.78
2022-08-23T08:04:05.525Z,3.75
2022-08-23T08:06:41.483Z,3.83
2022-08-23T08:09:10.718Z,4.22
2022-08-23T08:11:40.224Z,3.88
2022-08-23T08:14:09.339Z,3.45
2022-08-23T08:16:40.453Z,3.67
2022-08-23T08:19:09.606Z,3.80
2022-08-23T08:21:39.705Z,4.15
2022-08-23T08:24:12.851Z,3.33
2022-08-23T08:26:41.155Z,3.50
2022-08-23T08:29:11.954Z,3.70
2022-08-23T08:31:40.814Z,3.42
2022-08-23T08:34:08.962Z,3.65
2022-08-23T08:36:42.517Z,3.45
2022-08-23T08:39:16.369Z,3.20
2022-08-23T08:42:05.346Z,3.45
2022-08-23T08:45:16.363Z,3.60
2022-08-23T08:48:04.005Z,3.08
2022-08-23T08:50:53.548Z,3.38
2022-08-23T08:53:26.091Z,3.67
2022-08-23T08:55:59.326Z,3.72
2022-08-23T08:58:30.272Z,3.42
2022-08-23T09:00:57.367Z,3.40
2022-08-23T09:03:29.104Z,3.28
2022-08-23T09:06:03.055Z,3.78
2022-08-23T09:08:38.644Z,3.45
2022-08-23T09:11:17.002Z,3.50
2022-08-23T09:14:15.181Z,3.13
2022-08-23T09:16:53.916Z,3.13
2022-08-23T09:19:23.575Z,3.00
2022-08-23T09:21:58.998Z,3.10
2022-08-23T09:24:26.577Z,2.63
2022-08-23T09:26:53.920Z,2.60
2022-08-23T09:29:25.479Z,2.53
2022-08-23T09:32:02.046Z,3.08
2022-08-23T09:34:36.064Z,2.85
2022-08-23T09:37:19.715Z,2.78
2022-08-23T09:40:13.434Z,2.67
2022-08-23T09:42:41.551Z,3.05
2022-08-23T09:45:27.107Z,2.83
2022-08-23T09:47:54.883Z,2.72
2022-08-23T09:50:32.053Z,2.83
2022-08-23T09:53:06.222Z,2.80
2022-08-23T09:55:38.862Z,2.97
2022-08-23T09:58:37.172Z,2.53
2022-08-23T10:01:19.836Z,2.42
2022-08-23T10:03:47.319Z,2.35
2022-08-23T10:06:31.855Z,2.47
2022-08-23T10:09:04.358Z,2.55
2022-08-23T10:11:42.652Z,2.72
2022-08-23T10:14:09.849Z,2.60
2022-08-23T10:16:53.291Z,2.55
2022-08-23T10:19:50.792Z,2.53
2022-08-23T10:22:22.942Z,2.58
2022-08-23T10:25:00.656Z,2.70
2022-08-23T10:28:04.135Z,2.38
2022-08-23T10:30:55.862Z,2.50
2022-08-23T10:33:31.708Z,2.67
2022-08-23T10:36:10.780Z,2.78
2022-08-23T10:38:47.772Z,3.05
2022-08-23T10:41:24.308Z,3.05
2022-08-23T10:44:02.778Z,2.90
2022-08-23T10:46:34.090Z,2.47
2022-08-23T10:49:02.839Z,3.10
2022-08-23T10:51:51.836Z,3.20
2022-08-23T10:54:34.483Z,2.83
2022-08-23T10:57:04.212Z,2.92
2022-08-23T10:59:32.456Z,3.10
2022-08-23T11:02:26.506Z,3.53
2022-08-23T11:05:05.303Z,2.95
2022-08-23T11:07:35.192Z,2.90
2022-08-23T11:10:16.891Z,3.13
2022-08-23T11:12:58.049Z,3.33
2022-08-23T11:15:45.023Z,3.15
2022-08-23T11:18:37.491Z,3.00
2022-08-23T11:21:33.356Z,3.03
2022-08-23T11:24:00.151Z,2.88
2022-08-23T11:26:26.936Z,3.28
2022-08-23T11:29:06.658Z,3.30
2022-08-23T11:31:47.418Z,2.92
2022-08-23T11:34:29.853Z,3.30
2022-08-23T11:37:18.686Z,2.90
2022-08-23T11:40:00.618Z,2.67
2022-08-23T11:42:50.251Z,3.40
2022-08-23T11:45:40.730Z,2.92
2022-08-23T11:48:31.828Z,3.45
2022-08-23T11:51:10.090Z,3.10
2022-08-23T11:53:53.975Z,3.33
2022-08-23T11:56:33.515Z,3.40
2022-08-23T11:59:15.501Z,3.15
2022-08-23T12:01:44.811Z,2.80
2022-08-23T12:04:33.161Z,3.65
2022-08-23T12:07:07.779Z,3.80
2022-08-23T12:09:36.060Z,4.13
2022-08-23T12:12:26.133Z,4.00
2022-08-23T12:14:56.652Z,5.00
2022-08-23T12:17:25.951Z,4.30
2022-08-23T12:20:00.657Z,4.60
2022-08-23T12:22:34.326Z,5.10
2022-08-23T12:25:04.941Z,4.45
2022-08-23T12:27:41.260Z,4.45
2022-08-23T12:30:20.747Z,4.20
2022-08-23T12:33:04.692Z,4.30
2022-08-23T12:35:49.634Z,4.50
2022-08-23T12:38:27.737Z,3.92
2022-08-23T12:40:56.715Z,3.65
2022-08-23T12:43:29.445Z,3.72
2022-08-23T12:46:01.828Z,4.10
2022-08-23T12:48:32.342Z,3.72
2022-08-23T12:51:03.436Z,4.00
2022-08-23T12:53:31.853Z,4.68
2022-08-23T12:56:17.779Z,3.55
2022-08-23T12:58:56.755Z,3.55
2022-08-23T13:01:33.347Z,4.07
2022-08-23T13:04:08.180Z,3.53
2022-08-23T13:06:44.218Z,3.85
2022-08-23T13:09:36.477Z,3.22
2022-08-23T13:12:04.746Z,3.50
2022-08-23T13:14:43.443Z,3.40
2022-08-23T13:17:31.544Z,3.63
2022-08-23T13:20:01.341Z,3.50
2022-08-23T13:22:31.085Z,3.42
2022-08-23T13:25:26.838Z,3.30
2022-08-23T13:27:48.619Z,3.15
2022-08-23T13:30:17.171Z,3.38
2022-08-23T13:32:50.028Z,3.58
2022-08-23T13:35:30.193Z,3.38
2022-08-23T13:38:07.547Z,3.38
2022-08-23T13:40:57.039Z,3.10
2022-08-23T13:43:55.634Z,3.10
2022-08-23T13:46:26.575Z,3.20
2022-08-23T13:49:01.500Z,3.70
2022-08-23T13:51:33.159Z,2.90
2022-08-23T13:54:03.610Z,3.35
2022-08-23T13:56:34.323Z,3.45
2022-08-23T13:59:07.647Z,2.70
2022-08-23T14:01:35.316Z,2.38
2022-08-23T14:04:02.241Z,3.05
2022-08-23T14:06:29.000Z,2.97
2022-08-23T14:08:55.715Z,3.05
2022-08-23T14:11:22.456Z,3.05
2022-08-23T14:13:49.758Z,3.28
2022-08-23T14:16:39.249Z,2.63
2022-08-23T14:19:54.764Z,2.72
2022-08-23T14:21:56.974Z,2.60
2022-08-23T14:24:26.917Z,2.80
2022-08-23T14:26:54.774Z,3.25
2022-08-23T14:29:23.074Z,3.00
2022-08-23T14:31:51.948Z,2.67
2022-08-23T14:34:19.441Z,2.53
2022-08-23T14:39:33.275Z,3.40
2022-08-23T14:42:00.133Z,2.97
2022-08-23T14:44:31.581Z,2.65
2022-08-23T14:47:00.213Z,3.08
2022-08-23T14:49:26.966Z,2.88
2022-08-23T14:51:54.163Z,3.08
2022-08-23T14:54:23.638Z,2.90
2022-08-23T14:56:50.823Z,3.00
2022-08-23T14:59:17.605Z,3.08
2022-08-23T15:01:45.076Z,2.83
2022-08-23T15:04:18.340Z,3.20
2022-08-23T15:07:06.824Z,3.15
2022-08-23T15:09:32.672Z,3.38
2022-08-23T15:14:46.470Z,3.00
2022-08-23T15:17:13.890Z,2.90
2022-08-23T15:19:40.940Z,3.17
2022-08-23T15:22:15.841Z,3.20
2022-08-23T15:24:45.714Z,2.97
2022-08-23T15:27:12.535Z,2.80
2022-08-23T15:29:39.266Z,3.47
2022-08-23T15:32:06.173Z,3.13
2022-08-23T15:34:36.002Z,2.80
2022-08-23T15:37:02.749Z,2.90
2022-08-23T15:39:29.528Z,2.70
2022-08-23T15:41:56.231Z,2.42
2022-08-23T15:44:23.086Z,2.67
2022-08-23T15:46:50.079Z,2.85
2022-08-23T15:49:19.079Z,2.70
2022-08-23T15:51:45.875Z,2.90
2022-08-23T15:54:12.635Z,2.50
2022-08-23T15:56:49.864Z,2.70
2022-08-23T15:59:19.218Z,2.47
2022-08-23T16:01:46.449Z,2.80
2022-08-23T16:04:13.251Z,2.90
2022-08-23T16:06:41.352Z,2.67
2022-08-23T16:09:14.637Z,2.90
2022-08-23T16:11:43.766Z,2.65
2022-08-23T16:14:10.540Z,2.75
2022-08-23T16:16:39.734Z,2.83
2022-08-23T16:19:07.549Z,2.80
2022-08-23T16:21:36.055Z,3.13
2022-08-23T16:24:03.098Z,3.20
2022-08-23T16:26:35.389Z,2.55
2022-08-23T16:29:03.958Z,2.88
2022-08-23T16:31:38.885Z,2.58
2022-08-23T16:34:08.652Z,2.70
2022-08-23T16:36:35.563Z,2.58
2022-08-23T16:39:02.249Z,2.70
2022-08-23T16:41:28.958Z,3.20
2022-08-23T16:43:55.682Z,2.92
2022-08-23T16:46:24.217Z,2.63
2022-08-23T16:48:51.157Z,3.38
2022-08-23T16:51:17.929Z,2.60
2022-08-23T16:53:44.871Z,2.90
2022-08-23T16:56:29.821Z,2.90
2022-08-23T16:58:56.891Z,3.13
2022-08-23T17:01:23.788Z,3.45
2022-08-23T17:03:51.000Z,3.05
2022-08-23T17:06:18.224Z,4.00
2022-08-23T17:08:45.426Z,3.00
2022-08-23T17:11:16.944Z,2.95
2022-08-23T17:13:44.260Z,3.05
2022-08-23T17:16:11.403Z,2.78
2022-08-23T17:18:38.814Z,3.13
2022-08-23T17:21:06.656Z,2.90
2022-08-23T17:23:34.031Z,2.67
2022-08-23T17:26:07.007Z,2.40
2022-08-23T17:28:33.870Z,2.95
2022-08-23T17:31:00.595Z,2.95
2022-08-23T17:33:27.371Z,3.20
2022-08-23T17:35:54.027Z,3.05
2022-08-23T17:38:20.946Z,3.70
2022-08-23T17:40:47.833Z,3.38
2022-08-23T17:43:14.584Z,3.58
2022-08-23T17:45:47.535Z,2.90
2022-08-23T17:48:15.889Z,2.80
2022-08-23T17:50:43.906Z,2.75
2022-08-23T17:53:12.307Z,3.08
2022-08-23T17:55:40.735Z,3.08
2022-08-23T17:58:09.953Z,3.47
2022-08-23T18:00:38.633Z,3.08
2022-08-23T18:03:05.556Z,2.90
2022-08-23T18:05:33.334Z,3.03
2022-08-23T18:08:01.797Z,3.00
2022-08-23T18:10:29.955Z,2.97
2022-08-23T18:12:57.525Z,3.00
2022-08-23T18:15:24.539Z,3.17
2022-08-23T18:17:52.231Z,3.65
2022-08-23T18:20:26.604Z,5.43
2022-08-23T18:22:54.756Z,2.80
2022-08-23T18:25:21.414Z,2.70
2022-08-23T18:28:06.598Z,3.38
2022-08-23T18:30:38.601Z,2.80
2022-08-23T18:33:06.487Z,2.97
2022-08-23T18:35:34.573Z,3.08
2022-08-23T18:38:02.118Z,3.10
2022-08-23T18:40:29.820Z,3.00
2022-08-23T18:42:57.296Z,2.80
2022-08-23T18:45:24.155Z,2.83
2022-08-23T18:47:51.087Z,3.03
2022-08-23T18:50:18.275Z,3.00
2022-08-23T18:52:45.042Z,3.20
2022-08-23T18:55:11.787Z,3.05
2022-08-23T18:57:39.005Z,3.15
2022-08-23T19:00:07.759Z,3.00
2022-08-23T19:02:35.593Z,3.40
2022-08-23T19:05:03.451Z,3.17
2022-08-23T19:07:30.556Z,3.10
2022-08-23T19:09:57.246Z,3.08
2022-08-23T19:12:24.181Z,2.90
2022-08-23T19:14:50.904Z,3.03
2022-08-23T19:17:17.626Z,2.90
2022-08-23T19:19:44.660Z,3.13
2022-08-23T19:22:12.593Z,3.20
2022-08-23T19:24:39.316Z,2.40
2022-08-23T19:27:06.282Z,3.08
2022-08-23T19:29:33.048Z,2.92
2022-08-23T19:31:59.871Z,3.00
2022-08-23T19:34:26.831Z,3.38
2022-08-23T19:37:00.646Z,3.20
2022-08-23T19:39:29.446Z,2.65
2022-08-23T19:41:56.695Z,3.25
2022-08-23T19:44:23.713Z,2.63
2022-08-23T19:46:50.482Z,3.08
2022-08-23T19:49:17.356Z,3.10
2022-08-23T19:51:44.775Z,3.35
2022-08-23T19:54:12.809Z,3.00
2022-08-23T19:56:52.279Z,3.15
2022-08-23T19:59:24.652Z,3.17
2022-08-23T20:01:53.479Z,3.15
2022-08-23T20:04:22.557Z,3.13
2022-08-23T20:06:50.823Z,3.05
2022-08-23T20:09:19.116Z,3.40
2022-08-23T20:11:46.260Z,3.33
2022-08-23T20:14:12.990Z,3.17
2022-08-23T20:16:41.420Z,3.10
2022-08-23T20:19:09.917Z,3.53
2022-08-23T20:21:38.026Z,2.92
2022-08-23T20:24:05.435Z,3.50
2022-08-23T20:26:35.102Z,2.70
2022-08-23T20:29:03.426Z,2.95
2022-08-23T20:31:33.452Z,3.47
2022-08-23T20:34:00.868Z,3.95
2022-08-23T20:36:28.692Z,3.45
2022-08-23T20:38:58.379Z,3.35
2022-08-23T20:41:27.678Z,4.30
2022-08-23T20:43:55.570Z,3.50
2022-08-23T20:46:22.484Z,3.58
2022-08-23T20:48:51.469Z,3.20
2022-08-23T20:51:19.903Z,3.35
2022-08-23T20:53:47.263Z,3.50
2022-08-23T20:56:14.350Z,3.08
2022-08-23T20:58:40.999Z,3.30
2022-08-23T21:01:11.278Z,3.00
2022-08-23T21:03:38.647Z,3.35
2022-08-23T21:06:08.485Z,2.97
2022-08-23T21:08:41.993Z,3.35
2022-08-23T21:11:10.343Z,3.17
2022-08-23T21:13:38.529Z,3.22
2022-08-23T21:16:05.516Z,3.58
2022-08-23T21:18:32.395Z,3.28
2022-08-23T21:20:59.573Z,3.70
2022-08-23T21:23:26.638Z,3.53
2022-08-23T21:25:54.757Z,3.47
2022-08-23T21:28:22.398Z,3.70
2022-08-23T21:30:49.219Z,3.00
2022-08-23T21:33:16.664Z,3.38
2022-08-23T21:35:44.348Z,3.47
2022-08-23T21:38:11.220Z,3.40
2022-08-23T21:40:38.393Z,3.40
2022-08-23T21:43:05.140Z,3.10
2022-08-23T21:45:32.101Z,3.67
2022-08-23T21:47:58.830Z,3.45
2022-08-23T21:50:28.671Z,3.58
2022-08-23T21:52:56.588Z,3.50
2022-08-23T21:55:36.116Z,3.63
2022-08-23T21:58:03.921Z,3.47
2022-08-23T22:00:31.849Z,3.67
2022-08-23T22:02:58.721Z,3.25
2022-08-23T22:05:26.572Z,3.42
2022-08-23T22:07:53.887Z,3.78
2022-08-23T22:10:21.804Z,3.92
2022-08-23T22:12:48.854Z,3.70
2022-08-23T22:15:16.411Z,3.95
2022-08-23T22:17:43.273Z,3.70
2022-08-23T22:20:13.495Z,3.55
2022-08-23T22:22:40.371Z,3.83
2022-08-23T22:25:08.834Z,3.80
2022-08-23T22:27:36.292Z,3.75
2022-08-23T22:30:03.149Z,3.55
2022-08-23T22:32:29.831Z,3.67
2022-08-23T22:34:57.911Z,3.83
2022-08-23T22:37:25.227Z,3.58
2022-08-23T22:39:56.384Z,3.88
2022-08-23T22:42:23.406Z,3.85
2022-08-23T22:44:50.711Z,3.60
2022-08-23T22:47:17.707Z,3.88
2022-08-23T22:49:44.443Z,3.65
2022-08-23T22:52:11.113Z,4.30
2022-08-23T22:54:37.886Z,3.95
2022-08-23T22:57:04.791Z,3.67
2022-08-23T22:59:33.232Z,4.00
2022-08-23T23:02:03.307Z,3.78
2022-08-23T23:04:32.357Z,4.00
2022-08-23T23:06:59.524Z,4.05
2022-08-23T23:09:26.718Z,3.83
2022-08-23T23:11:54.557Z,3.97
2022-08-23T23:14:22.104Z,3.63
2022-08-23T23:16:49.522Z,3.70
2022-08-23T23:19:35.999Z,4.00
2022-08-23T23:22:03.685Z,3.70
2022-08-23T23:24:33.664Z,3.70
2022-08-23T23:27:01.617Z,3.80
2022-08-23T23:29:30.992Z,3.55
2022-08-23T23:31:58.819Z,3.95
2022-08-23T23:34:26.689Z,3.45
2022-08-23T23:36:57.886Z,3.70
2022-08-23T23:39:25.350Z,3.70
2022-08-23T23:41:52.349Z,3.70
2022-08-23T23:44:30.844Z,3.78
2022-08-23T23:46:59.688Z,4.13
2022-08-23T23:49:32.622Z,4.20
2022-08-23T23:52:01.167Z,3.65
2022-08-23T23:54:27.951Z,4.10
2022-08-23T23:56:55.496Z,4.30
2022-08-23T23:59:22.191Z,3.80
